Flight Track Log - Related Links

Times and Time Zones

All times are in EDT time to prevent confusion due to time zone crossing. See the CSZ9533 flight status page for this flight to view local times or setup timezone preferences in your user account.

Time Position Orientation Groundspeed Altitude Reporting Facility
EDT Latitude Longitude Course Direction KTS MPH feet Rate Location/Type
Sat 07:56:00 AM 25.6089 119.1093 237° Southwest  Level Estimated
Sat 07:57:00 AM 25.5543 119.0172 237° Southwest  Level Estimated
Sat 07:58:00 AM 25.4997 118.9253 237° Southwest  Level Estimated
Sat 07:59:00 AM 25.4450 118.8334 237° Southwest  Level Estimated
Sat 08:00:00 AM 25.3903 118.7416 237° Southwest  Level Estimated
Sat 08:01:00 AM 25.3355 118.6499 237° Southwest  Level Estimated
Sat 08:02:00 AM 25.2806 118.5583 237° Southwest  Level Estimated
Sat 08:03:00 AM 25.2257 118.4667 236° Southwest  Level Estimated
Sat 08:04:00 AM 25.1708 118.3753 236° Southwest  Level Estimated
Sat 08:05:00 AM 25.1157 118.2839 236° Southwest  Level Estimated
Sat 08:06:00 AM 25.0607 118.1926 236° Southwest  Level Estimated
Sat 08:07:00 AM 25.0055 118.1014 236° Southwest  Level Estimated
Sat 08:08:00 AM 24.9504 118.0102 236° Southwest  Level Estimated
Sat 08:09:00 AM 24.8951 117.9192 236° Southwest  Level Estimated
Sat 08:10:00 AM 24.8398 117.8282 236° Southwest  Level Estimated
Sat 08:11:00 AM 24.7845 117.7374 236° Southwest  Level Estimated
Sat 08:12:00 AM 24.7291 117.6466 236° Southwest  Level Estimated
Sat 08:13:00 AM 24.6736 117.5558 236° Southwest  Level Estimated
Sat 08:14:00 AM 24.6181 117.4652 236° Southwest  Level Estimated
Sat 08:15:00 AM 24.5625 117.3746 236° Southwest  Level Estimated
Sat 08:16:00 AM 24.5069 117.2841 236° Southwest  Level Estimated
Sat 08:17:00 AM 24.4512 117.1937 236° Southwest  Level Estimated
Sat 08:18:00 AM 24.3955 117.1034 236° Southwest  Level Estimated
Sat 08:19:00 AM 24.3397 117.0132 236° Southwest  Level Estimated
Sat 08:20:00 AM 24.2838 116.9230 236° Southwest  Level Estimated
Sat 08:21:00 AM 24.2280 116.8329 236° Southwest  Level Estimated
Sat 08:22:00 AM 24.1720 116.7429 236° Southwest  Level Estimated
Sat 08:23:00 AM 24.1160 116.6530 236° Southwest  Level Estimated
Sat 08:24:00 AM 24.0600 116.5631 236° Southwest  Level Estimated
Sat 08:25:00 AM 24.0039 116.4734 236° Southwest  Level Estimated
Sat 08:26:00 AM 23.9477 116.3837 236° Southwest  Level Estimated
Sat 08:27:00 AM 23.8915 116.2941 236° Southwest  Level Estimated
Sat 08:28:00 AM 23.8352 116.2046 236° Southwest  Level Estimated
Sat 08:29:00 AM 23.7789 116.1151 235° Southwest  Level Estimated
Sat 08:30:00 AM 23.7226 116.0257 235° Southwest  Level Estimated
Sat 08:31:00 AM 23.6661 115.9364 235° Southwest  Level Estimated
Sat 08:32:00 AM 23.6097 115.8472 235° Southwest  Level Estimated
Sat 08:33:00 AM 23.5532 115.7580 235° Southwest  Level Estimated
Sat 08:34:00 AM 23.4966 115.6690 235° Southwest  Level Estimated
Sat 08:35:00 AM 23.4400 115.5800 235° Southwest  Level Estimated
Sat 08:36:00 AM 23.3833 115.4911 235° Southwest  Level Estimated
Sat 08:37:00 AM 23.3266 115.4022 235° Southwest  Level Estimated
Sat 08:38:00 AM 23.2698 115.3135 235° Southwest  Level Estimated
Sat 08:39:00 AM 23.2130 115.2247 235° Southwest  Level Estimated
Sat 08:40:00 AM 23.1562 115.1361 235° Southwest  Level Estimated
Sat 08:41:00 AM 23.0992 115.0476 235° Southwest  Level Estimated
Sat 08:42:00 AM 23.0423 114.9591 235° Southwest  Level Estimated
Sat 08:43:00 AM 22.9853 114.8707 235° Southwest  Level Estimated
Sat 08:44:00 AM 22.9282 114.7824 235° Southwest  Level Estimated
Sat 08:45:00 AM 22.8711 114.6942 235° Southwest  Level Estimated
Sat 08:46:00 AM 22.8139 114.6060 235° Southwest  Level Estimated
Sat 08:47:00 AM 22.7567 114.5179 235° Southwest  Level Estimated
Sat 08:48:00 AM 22.6994 114.4299 235° Southwest  Level Estimated
Sat 08:49:00 AM 22.6421 114.3420 235° Southwest  Level Estimated
Sat 08:50:00 AM 22.5848 114.2541 235° Southwest  Level Estimated
Sat 08:51:00 AM 22.5274 114.1663 235° Southwest  Level Estimated
Sat 08:52:00 AM 22.4699 114.0786 235° Southwest  Level Estimated
Sat 08:53:00 AM 22.4124 113.9909 235° Southwest  Level Estimated
Sat 08:54:00 AM 22.3549 113.9033 235° Southwest  Level Estimated
Sat 08:55:00 AM 22.2973 113.8158 235° Southwest  Level Estimated
Sat 08:56:00 AM 22.2397 113.7284 235° Southwest  Level Estimated
Sat 08:57:00 AM 22.1820 113.6410 235° Southwest  Level Estimated
Sat 08:58:00 AM 22.1242 113.5537 234° Southwest  Level Estimated
Sat 08:59:00 AM 22.0665 113.4665 234° Southwest  Level Estimated
Sat 09:00:00 AM 22.0086 113.3794 234° Southwest  Level Estimated
Sat 09:01:00 AM 22.0067 113.3764 234° Southwest  Level Estimated
Sat 09:02:00 AM 22.0067 113.3764 North  Level Estimated
Sat 09:03:00 AM 22.0067 113.3764 North  Level Estimated
Sat 09:04:00 AM 22.0067 113.3764 North  Level Estimated
Sat 09:05:00 AM 22.0067 113.3764 North  Level Estimated
Sat 09:06:00 AM 22.0067 113.3764 North  Level Estimated
Sat 09:07:00 AM 22.0067 113.3764 North  Level Estimated
Sat 09:08:00 AM 22.0067 113.3764 North  Level Estimated
Sat 09:09:00 AM 22.0067 113.3764 North  Level Estimated
Sat 09:10:00 AM 22.0067 113.3764 North  Level Estimated
Sat 09:11:00 AM 22.0067 113.3764 North  Level Estimated
Sat 09:12:00 AM 22.0067 113.3764 North  Level Estimated
Sat 09:13:00 AM 22.0067 113.3764 North  Level Estimated
Sat 09:14:00 AM 22.0067 113.3764 North  Level Estimated
Sat 09:15:00 AM 22.0067 113.3764 North  Level Estimated
Sat 09:16:00 AM 22.0067 113.3764 North  Level Estimated

Login

Don't have an account? Register now (free) for customized features, flight alerts, and more!